Salvatore — IIYN — position and weather

sailwx.info

Track history (hours):
 
Tides and Currents Weather Stations Pressure Air Temp Water Temp Dewpoint Dewpoint Depression Visibility Wind Speed Wind Dir Waves Ship Positions

Salvatore

Last reported at 2017-Dec-14 12:06 UTC. Time now 2018-Jan-22 02:37 UTC.
Position N 39°40' E 016°32'.
Warning: this ship's position is 38 days out of date.

Length 21 m.

Type: Fishing. MMSI: 247303390.

Date/timePositionNaut miles runAvg speedWind from/ knotsBaromVisibWave heightAir tempDewpointWater temp
2017-Dec-14 12:06N 39°40' E 016°32'0 0.1
2017-Dec-14 12:00N 39°40' E 016°32'4 6.6
2017-Dec-14 11:20N 39°42' E 016°37'1 1.9
2017-Dec-14 11:00N 39°42' E 016°37'1 1.1
2017-Dec-14 10:29N 39°43' E 016°37'1 2.6
2017-Dec-14 10:00N 39°44' E 016°37'2 2.7
2017-Dec-14 09:18N 39°46' E 016°37'2 2.5
2017-Dec-14 08:29N 39°48' E 016°37'2 2.4
2017-Dec-14 07:33N 39°50' E 016°38'0 2.8
2017-Dec-14 07:31N 39°50' E 016°38'2 2.6
2017-Dec-14 06:50N 39°52' E 016°39'1 2.4
2017-Dec-14 06:30N 39°52' E 016°39'2 4.5
2017-Dec-14 06:00N 39°54' E 016°40'4 7.2
2017-Dec-14 05:30N 39°58' E 016°41'1 2.4
2017-Dec-14 05:00N 39°59' E 016°41'2 2.9
2017-Dec-14 04:28N 40°01' E 016°41'1 3.0
2017-Dec-14 04:00N 40°02' E 016°42'2 3.1
2017-Dec-14 03:28N 40°03' E 016°43'2 3.0
2017-Dec-14 02:42N 40°05' E 016°44'1 2.9
2017-Dec-14 02:24N 40°06' E 016°45'8 2.9
2017-Dec-13 23:45N 40°13' E 016°48'0 1.1
2017-Dec-13 23:27N 40°13' E 016°48'1 2.9
2017-Dec-13 23:00N 40°12' E 016°48'1 2.9
2017-Dec-13 22:30N 40°10' E 016°48'1 3.0
2017-Dec-13 22:00N 40°09' E 016°47'2 2.9
2017-Dec-13 21:19N 40°07' E 016°46'3 0.7
2017-Dec-13 16:13N 40°10' E 016°48'1 2.8
2017-Dec-13 15:59N 40°11' E 016°49'2 3.2
2017-Dec-13 15:26N 40°12' E 016°49'2 3.7
2017-Dec-13 15:00N 40°11' E 016°51'0 0.7
2017-Dec-13 14:30N 40°11' E 016°51'1 2.5
2017-Dec-13 14:00N 40°10' E 016°51'1 2.5
2017-Dec-13 13:30N 40°08' E 016°51'1 2.5
2017-Dec-13 13:00N 40°07' E 016°51'1 2.5
2017-Dec-13 12:30N 40°06' E 016°50'2 2.7
2017-Dec-13 11:54N 40°05' E 016°48'1 2.8
2017-Dec-13 11:30N 40°04' E 016°47'2 2.7
2017-Dec-13 10:56N 40°02' E 016°47'4 3.1
2017-Dec-13 09:40N 39°59' E 016°48'0 1.0
2017-Dec-13 09:29N 39°58' E 016°48'0 0.2
2017-Dec-13 09:00N 39°59' E 016°48'1 2.4
2017-Dec-13 08:29N 39°57' E 016°48'1 2.5
2017-Dec-13 08:00N 39°56' E 016°47'1 2.4
2017-Dec-13 07:30N 39°55' E 016°48'1 2.4
2017-Dec-13 07:00N 39°54' E 016°48'2 2.4
2017-Dec-13 06:05N 39°52' E 016°50'0 2.4
2017-Dec-13 05:52N 39°52' E 016°51'8 2.5
2017-Dec-13 02:49N 39°45' E 016°47'3 7.5
2017-Dec-13 02:23N 39°44' E 016°43'3 7.3
2017-Dec-13 01:59N 39°43' E 016°39'4 7.4
2017-Dec-13 01:29N 39°42' E 016°35'3 6.5
2017-Dec-13 01:00N 39°40' E 016°32'0 0.0
2017-Dec-12 13:55N 39°40' E 016°32'2 4.3
2017-Dec-12 13:30N 39°41' E 016°33'4 8.1
2017-Dec-12 13:00N 39°43' E 016°38'7 7.8
2017-Dec-12 12:04N 39°45' E 016°47'2 5.1
2017-Dec-12 11:46N 39°46' E 016°49'0 0.4
2017-Dec-12 11:10N 39°46' E 016°49'1 2.4
2017-Dec-12 10:51N 39°46' E 016°50'1 2.5
2017-Dec-12 10:22N 39°47' E 016°51'1 2.5
2017-Dec-12 09:56N 39°48' E 016°51'9 2.5
2017-Dec-12 06:14N 39°57' E 016°47'6 6.0
2017-Dec-12 05:18N 39°59' E 016°40'0 1.1
2017-Dec-12 04:55N 39°60' E 016°41'1 2.3
2017-Dec-12 04:26N 40°01' E 016°41'2 2.3
2017-Dec-12 03:27N 40°03' E 016°42'2 2.3
2017-Dec-12 02:43N 40°04' E 016°43'4 2.6
2017-Dec-12 01:17N 40°08' E 016°46'1 2.8
2017-Dec-12 00:49N 40°09' E 016°46'1 1.6
2017-Dec-12 00:30N 40°08' E 016°46'1 2.9
2017-Dec-12 00:00N 40°07' E 016°45'2 2.8
2017-Dec-11 23:26N 40°06' E 016°44'1 2.9
2017-Dec-11 22:59N 40°04' E 016°44'2 2.9
2017-Dec-11 22:20N 40°03' E 016°42'1 2.9
2017-Dec-11 21:58N 40°02' E 016°42'1 0.7
2017-Dec-11 20:36N 40°01' E 016°41'0 2.5
2017-Dec-11 20:28N 40°01' E 016°41'4 2.6
2017-Dec-11 19:04N 40°05' E 016°44'0 2.6
2017-Dec-11 18:57N 40°05' E 016°44'4 2.5
2017-Dec-11 17:16N 40°08' E 016°47'1 2.5
2017-Dec-11 16:49N 40°10' E 016°47'1 2.4
2017-Dec-11 16:17N 40°11' E 016°48'3 2.6
2017-Dec-11 15:19N 40°13' E 016°49'1 1.9
2017-Dec-11 15:00N 40°13' E 016°49'1 3.0
2017-Dec-11 14:30N 40°11' E 016°49'2 3.1
2017-Dec-11 13:51N 40°09' E 016°48'1 3.0
2017-Dec-11 13:27N 40°08' E 016°47'6 2.9
2017-Dec-11 11:27N 40°03' E 016°44'2 3.7
2017-Dec-11 10:55N 40°01' E 016°45'0 1.0
2017-Dec-11 10:30N 40°01' E 016°45'1 2.4
2017-Dec-11 09:56N 40°02' E 016°46'1 2.5
2017-Dec-11 09:30N 40°03' E 016°47'7 2.4
2017-Dec-11 06:37N 40°09' E 016°50'0 3.6
2017-Dec-11 06:29N 40°10' E 016°50'2 4.2
2017-Dec-11 05:54N 40°09' E 016°47'10 2.9
2017-Dec-11 02:32N 40°01' E 016°40'0 3.2
2017-Dec-11 02:26N 40°00' E 016°40'2 3.5
2017-Dec-11 01:57N 39°59' E 016°40'4 8.0
2017-Dec-11 01:30N 39°55' E 016°39'15 7.6
2017-Dec-10 23:30N 39°41' E 016°32'  
Track history (hours):
 
Tides and Currents Weather Stations Pressure Air Temp Water Temp Dewpoint Dewpoint Depression Visibility Wind Speed Wind Dir Waves Ship Positions

Salvatore

Last reported at 2017-Dec-14 12:06 UTC. Time now 2018-Jan-22 02:37 UTC.
Position N 39°40' E 016°32'.
Warning: this ship's position is 38 days out of date.

Length 21 m.

Type: Fishing. MMSI: 247303390.

Date/timePositionNaut miles runAvg speedWind from/ knotsBaromVisibWave heightAir tempDewpointWater temp
2017-Dec-14 12:06N 39°40' E 016°32'0 0.1
2017-Dec-14 12:00N 39°40' E 016°32'4 6.6
2017-Dec-14 11:20N 39°42' E 016°37'1 1.9
2017-Dec-14 11:00N 39°42' E 016°37'1 1.1
2017-Dec-14 10:29N 39°43' E 016°37'1 2.6
2017-Dec-14 10:00N 39°44' E 016°37'2 2.7
2017-Dec-14 09:18N 39°46' E 016°37'2 2.5
2017-Dec-14 08:29N 39°48' E 016°37'2 2.4
2017-Dec-14 07:33N 39°50' E 016°38'0 2.8
2017-Dec-14 07:31N 39°50' E 016°38'2 2.6
2017-Dec-14 06:50N 39°52' E 016°39'1 2.4
2017-Dec-14 06:30N 39°52' E 016°39'2 4.5
2017-Dec-14 06:00N 39°54' E 016°40'4 7.2
2017-Dec-14 05:30N 39°58' E 016°41'1 2.4
2017-Dec-14 05:00N 39°59' E 016°41'2 2.9
2017-Dec-14 04:28N 40°01' E 016°41'1 3.0
2017-Dec-14 04:00N 40°02' E 016°42'2 3.1
2017-Dec-14 03:28N 40°03' E 016°43'2 3.0
2017-Dec-14 02:42N 40°05' E 016°44'1 2.9
2017-Dec-14 02:24N 40°06' E 016°45'8 2.9
2017-Dec-13 23:45N 40°13' E 016°48'0 1.1
2017-Dec-13 23:27N 40°13' E 016°48'1 2.9
2017-Dec-13 23:00N 40°12' E 016°48'1 2.9
2017-Dec-13 22:30N 40°10' E 016°48'1 3.0
2017-Dec-13 22:00N 40°09' E 016°47'2 2.9
2017-Dec-13 21:19N 40°07' E 016°46'3 0.7
2017-Dec-13 16:13N 40°10' E 016°48'1 2.8
2017-Dec-13 15:59N 40°11' E 016°49'2 3.2
2017-Dec-13 15:26N 40°12' E 016°49'2 3.7
2017-Dec-13 15:00N 40°11' E 016°51'0 0.7
2017-Dec-13 14:30N 40°11' E 016°51'1 2.5
2017-Dec-13 14:00N 40°10' E 016°51'1 2.5
2017-Dec-13 13:30N 40°08' E 016°51'1 2.5
2017-Dec-13 13:00N 40°07' E 016°51'1 2.5
2017-Dec-13 12:30N 40°06' E 016°50'2 2.7
2017-Dec-13 11:54N 40°05' E 016°48'1 2.8
2017-Dec-13 11:30N 40°04' E 016°47'2 2.7
2017-Dec-13 10:56N 40°02' E 016°47'4 3.1
2017-Dec-13 09:40N 39°59' E 016°48'0 1.0
2017-Dec-13 09:29N 39°58' E 016°48'0 0.2
2017-Dec-13 09:00N 39°59' E 016°48'1 2.4
2017-Dec-13 08:29N 39°57' E 016°48'1 2.5
2017-Dec-13 08:00N 39°56' E 016°47'1 2.4
2017-Dec-13 07:30N 39°55' E 016°48'1 2.4
2017-Dec-13 07:00N 39°54' E 016°48'2 2.4
2017-Dec-13 06:05N 39°52' E 016°50'0 2.4
2017-Dec-13 05:52N 39°52' E 016°51'8 2.5
2017-Dec-13 02:49N 39°45' E 016°47'3 7.5
2017-Dec-13 02:23N 39°44' E 016°43'3 7.3
2017-Dec-13 01:59N 39°43' E 016°39'4 7.4
2017-Dec-13 01:29N 39°42' E 016°35'3 6.5
2017-Dec-13 01:00N 39°40' E 016°32'0 0.0
2017-Dec-12 13:55N 39°40' E 016°32'2 4.3
2017-Dec-12 13:30N 39°41' E 016°33'4 8.1
2017-Dec-12 13:00N 39°43' E 016°38'7 7.8
2017-Dec-12 12:04N 39°45' E 016°47'2 5.1
2017-Dec-12 11:46N 39°46' E 016°49'0 0.4
2017-Dec-12 11:10N 39°46' E 016°49'1 2.4
2017-Dec-12 10:51N 39°46' E 016°50'1 2.5
2017-Dec-12 10:22N 39°47' E 016°51'1 2.5
2017-Dec-12 09:56N 39°48' E 016°51'9 2.5
2017-Dec-12 06:14N 39°57' E 016°47'6 6.0
2017-Dec-12 05:18N 39°59' E 016°40'0 1.1
2017-Dec-12 04:55N 39°60' E 016°41'1 2.3
2017-Dec-12 04:26N 40°01' E 016°41'2 2.3
2017-Dec-12 03:27N 40°03' E 016°42'2 2.3
2017-Dec-12 02:43N 40°04' E 016°43'4 2.6
2017-Dec-12 01:17N 40°08' E 016°46'1 2.8
2017-Dec-12 00:49N 40°09' E 016°46'1 1.6
2017-Dec-12 00:30N 40°08' E 016°46'1 2.9
2017-Dec-12 00:00N 40°07' E 016°45'2 2.8
2017-Dec-11 23:26N 40°06' E 016°44'1 2.9
2017-Dec-11 22:59N 40°04' E 016°44'2 2.9
2017-Dec-11 22:20N 40°03' E 016°42'1 2.9
2017-Dec-11 21:58N 40°02' E 016°42'1 0.7
2017-Dec-11 20:36N 40°01' E 016°41'0 2.5
2017-Dec-11 20:28N 40°01' E 016°41'4 2.6
2017-Dec-11 19:04N 40°05' E 016°44'0 2.6
2017-Dec-11 18:57N 40°05' E 016°44'4 2.5
2017-Dec-11 17:16N 40°08' E 016°47'1 2.5
2017-Dec-11 16:49N 40°10' E 016°47'1 2.4
2017-Dec-11 16:17N 40°11' E 016°48'3 2.6
2017-Dec-11 15:19N 40°13' E 016°49'1 1.9
2017-Dec-11 15:00N 40°13' E 016°49'1 3.0
2017-Dec-11 14:30N 40°11' E 016°49'2 3.1
2017-Dec-11 13:51N 40°09' E 016°48'1 3.0
2017-Dec-11 13:27N 40°08' E 016°47'6 2.9
2017-Dec-11 11:27N 40°03' E 016°44'2 3.7
2017-Dec-11 10:55N 40°01' E 016°45'0 1.0
2017-Dec-11 10:30N 40°01' E 016°45'1 2.4
2017-Dec-11 09:56N 40°02' E 016°46'1 2.5
2017-Dec-11 09:30N 40°03' E 016°47'7 2.4
2017-Dec-11 06:37N 40°09' E 016°50'0 3.6
2017-Dec-11 06:29N 40°10' E 016°50'2 4.2
2017-Dec-11 05:54N 40°09' E 016°47'10 2.9
2017-Dec-11 02:32N 40°01' E 016°40'0 3.2
2017-Dec-11 02:26N 40°00' E 016°40'2 3.5
2017-Dec-11 01:57N 39°59' E 016°40'4 8.0
2017-Dec-11 01:30N 39°55' E 016°39'15 7.6
2017-Dec-10 23:30N 39°41' E 016°32'  

Dump ship's entire track history